Wednesday, October 17, 2018, 8:00 AM GMT
Back to Local

CWRK, Bancroft Automatic Weather Reporting System

Location: , , Canada Lat: 45.067
Local Time: 8:00 AM GMT ( 8:00 GMT) Lon: -77.867
Time Zone: GMT Elev: 1085 ft

Show me the last for .
Show Decoded

2018-10-17 07:00 METAR CWRK 170700Z AUTO 20002KT 04/01 RMK AO1 SOG 03 8010 SLP078 T00410009 =
2018-10-17 06:00 METAR CWRK 170600Z AUTO 21003KT 05/M00 RMK AO1 SOG 03 6013 SLP082 T00451002 =
2018-10-17 05:00 METAR CWRK 170500Z AUTO 19003KT 03/M01 RMK AO1 SOG 03 6018 SLP087 T00291009 =
2018-10-17 04:00 METAR CWRK 170400Z AUTO 20005KT 04/01 RMK AO1 SOG 03 8018 SLP089 T00430005 =
2018-10-17 03:00 METAR CWRK 170300Z AUTO 19005KT 05/M00 RMK AO1 SOG 03 8017 SLP097 T00471002 =
2018-10-17 02:00 METAR CWRK 170200Z AUTO 19004KT 05/00 RMK AO1 SOG 03 6013 SLP106 T00510000 =
2018-10-17 01:00 METAR CWRK 170100Z AUTO 19005KT 06/M00 RMK AO1 SOG 03 8011 SLP109 T00561001 =
2018-10-17 00:00 METAR CWRK 170000Z AUTO 19004KT 06/M00 RMK AO1 SOG 03 7009 SLP117 T00561002 =
2018-10-16 23:00 METAR CWRK 162300Z AUTO 19003KT 06/01 RMK AO1 SOG 03 6012 SLP121 T00580005 =
2018-10-16 22:00 METAR CWRK 162200Z AUTO 22003KT 06/M01 RMK AO1 SOG 03 8014 SLP121 T00591007 =
2018-10-16 21:00 METAR CWRK 162100Z AUTO 23003KT 07/M01 RMK AO1 SOG 03 6020 SLP125 T00671012 =
2018-10-16 20:00 METAR CWRK 162000Z AUTO 21005KT 07/M01 RMK AO1 SOG 03 6019 SLP131 T00701010 =
2018-10-16 19:00 METAR CWRK 161900Z AUTO 22004KT 07/M00 RMK AO1 SOG 03 6027 SLP134 T00671004 =
2018-10-16 18:00 METAR CWRK 161800Z AUTO 23007KT 07/01 RMK AO1 SOG 03 7023 SLP145 T00700005 =
2018-10-16 17:00 METAR CWRK 161700Z AUTO 22005KT 06/M01 RMK AO1 SOG 03 8025 SLP151 T00601009 =
2018-10-16 16:00 METAR CWRK 161600Z AUTO 23004KT 06/01 RMK AO1 SOG 03 8019 SLP163 T00560005 =
2018-10-16 15:00 METAR CWRK 161500Z AUTO 23003KT 04/01 RMK AO1 SOG 03 8004 SLP170 T00440013 =
2018-10-16 14:00 METAR CWRK 161400Z AUTO 19003KT 03/02 RMK AO1 SOG 03 0005 SLP179 T00260018 =
2018-10-16 13:00 METAR CWRK 161300Z AUTO 19002KT 01/M00 RMK AO1 SOG 03 3012 SLP184 T00121002 =
2018-10-16 12:00 METAR CWRK 161200Z AUTO 16001KT M01/M02 RMK AO1 SOG 03 1007 SLP176 T10121016 =
2018-10-16 11:00 METAR CWRK 161100Z AUTO 21001KT M01/M02 RMK AO1 SOG 02 3007 SLP174 T10101015 =
2018-10-16 10:00 METAR CWRK 161000Z AUTO 27002KT M00/M02 RMK AO1 SOG 02 1014 SLP171 T10041016 =
2018-10-16 09:00 METAR CWRK 160900Z AUTO 23001KT M00/M01 RMK AO1 SOG 03 1014 SLP166 T10021014 =

Support USWX by starting your Amazon purchase here.